Time;durP1;ratioP1;P1;durP2;ratioP2;P2;SDS_P1;SDS_P2;PMS_P1;PMS_P2;Temp;Humidity;BMP_temperature;BMP_pressure;BME280_temperature;BME280_humidity;BME280_pressure;Samples;Min_cycle;Max_cycle;Signal;HPM_P1;HPM_P2
2023/07/07 00:00:51;;;;;;;6.68;3.60;;;14.60;99.90;;;;;;4924443;29;38104;-93
2023/07/07 00:03:17;;;;;;;7.22;3.80;;;14.60;99.90;;;;;;4917382;29;37827;-93
2023/07/07 00:05:48;;;;;;;6.50;3.42;;;14.60;99.90;;;;;;4900289;29;38007;-94
2023/07/07 00:08:14;;;;;;;7.55;4.07;;;14.60;99.90;;;;;;4899872;29;36284;-93
2023/07/07 00:10:53;;;;;;;5.82;4.05;;;14.50;99.90;;;;;;4915170;29;37873;-94
2023/07/07 00:13:21;;;;;;;6.78;4.05;;;14.50;99.90;;;;;;4899443;29;37479;-92
2023/07/07 00:15:47;;;;;;;8.80;3.67;;;14.40;99.90;;;;;;4899329;29;37567;-94
2023/07/07 00:18:16;;;;;;;5.00;3.33;;;14.40;99.90;;;;;;4893006;29;36264;-93
2023/07/07 00:20:42;;;;;;;7.78;3.92;;;14.40;99.90;;;;;;4903009;29;37677;-92
2023/07/07 00:23:08;;;;;;;6.32;3.65;;;14.40;99.90;;;;;;4920159;29;37324;-93
2023/07/07 00:25:34;;;;;;;6.03;2.80;;;14.40;99.90;;;;;;4938259;29;39399;-93
2023/07/07 00:28:01;;;;;;;6.60;3.60;;;14.30;99.90;;;;;;4911501;29;37101;-94
2023/07/07 00:30:30;;;;;;;4.43;3.33;;;14.40;99.90;;;;;;4916807;28;47095;-94
2023/07/07 00:32:56;;;;;;;5.97;3.45;;;14.40;99.90;;;;;;4933769;28;38610;-94
2023/07/07 00:35:23;;;;;;;6.47;3.40;;;14.40;99.90;;;;;;4897606;29;36926;-93
2023/07/07 00:37:49;;;;;;;5.25;2.80;;;14.40;99.90;;;;;;4910455;29;36311;-93
2023/07/07 00:40:17;;;;;;;4.35;3.10;;;14.40;99.90;;;;;;4890991;29;39093;-94
2023/07/07 00:42:43;;;;;;;5.45;3.08;;;14.30;99.90;;;;;;4892856;29;38301;-95
2023/07/07 00:45:20;;;;;;;4.30;3.00;;;14.30;99.90;;;;;;4888417;29;37101;-90
2023/07/07 00:47:59;;;;;;;3.85;2.60;;;14.30;99.90;;;;;;4893116;29;37799;-93
2023/07/07 00:50:30;;;;;;;4.72;2.92;;;14.20;99.90;;;;;;4893951;29;37616;-95
2023/07/07 00:52:57;;;;;;;6.93;3.78;;;14.20;99.90;;;;;;4894121;29;36725;-94
2023/07/07 00:55:40;;;;;;;4.30;3.08;;;14.20;99.90;;;;;;4909405;29;37262;-93
2023/07/07 00:58:09;;;;;;;6.28;3.75;;;14.20;99.90;;;;;;4892381;29;37554;-93
2023/07/07 01:03:19;;;;;;;4.57;2.85;;;14.20;99.90;;;;;;5280591;23;20060;-81
2023/07/07 01:05:47;;;;;;;7.82;2.88;;;14.10;99.90;;;;;;4958668;28;38362;-80
2023/07/07 01:08:13;;;;;;;5.95;3.10;;;14.10;99.90;;;;;;4978610;28;37932;-82
2023/07/07 01:10:39;;;;;;;6.28;2.67;;;14.00;99.90;;;;;;4982051;28;39586;-80
2023/07/07 01:13:12;;;;;;;5.63;2.90;;;14.00;99.90;;;;;;4972091;28;38440;-81
2023/07/07 01:16:14;;;;;;;4.35;3.28;;;14.00;99.90;;;;;;4960623;28;39286;-81
2023/07/07 01:18:46;;;;;;;4.30;2.83;;;14.00;99.90;;;;;;4968406;28;48190;-80
2023/07/07 01:21:32;;;;;;;5.18;2.65;;;14.10;99.90;;;;;;4972003;28;38439;-80
2023/07/07 01:23:58;;;;;;;5.90;3.20;;;14.10;99.90;;;;;;4972186;28;38882;-80
2023/07/07 01:26:45;;;;;;;6.95;2.92;;;14.10;99.90;;;;;;4971598;28;37906;-81
2023/07/07 01:29:14;;;;;;;3.83;2.92;;;14.00;99.90;;;;;;4972087;28;36141;-80
2023/07/07 01:32:00;;;;;;;6.72;2.95;;;14.00;99.90;;;;;;4955798;28;37585;-81
2023/07/07 01:34:34;;;;;;;3.78;3.15;;;13.90;99.90;;;;;;4974356;28;47819;-80
2023/07/07 01:37:02;;;;;;;8.35;3.63;;;13.90;99.90;;;;;;4972157;28;37114;-82
2023/07/07 01:39:36;;;;;;;8.23;3.30;;;13.80;99.90;;;;;;4972294;28;50464;-80
2023/07/07 01:42:20;;;;;;;5.55;3.42;;;13.80;99.90;;;;;;4972089;28;37345;-81
2023/07/07 01:44:46;;;;;;;7.78;3.83;;;13.80;99.90;;;;;;4968560;28;39887;-81
2023/07/07 01:47:17;;;;;;;5.72;3.38;;;13.80;99.90;;;;;;4971802;28;36992;-80
2023/07/07 01:49:53;;;;;;;8.67;4.77;;;13.80;99.90;;;;;;4972123;28;37080;-80
2023/07/07 01:52:35;;;;;;;8.93;5.03;;;13.80;99.90;;;;;;4970983;28;38831;-80
2023/07/07 01:55:09;;;;;;;6.72;4.00;;;13.80;99.90;;;;;;4975150;28;38670;-80
2023/07/07 01:57:37;;;;;;;6.20;5.10;;;13.80;99.90;;;;;;4969715;28;46975;-80
2023/07/07 02:00:23;;;;;;;7.90;4.10;;;13.70;99.90;;;;;;4960526;28;37481;-81
2023/07/07 02:02:51;;;;;;;6.28;4.50;;;13.80;99.90;;;;;;4965901;28;47314;-81
2023/07/07 02:05:19;;;;;;;6.95;4.60;;;13.80;99.90;;;;;;4932105;29;37707;-81
2023/07/07 02:07:57;;;;;;;6.68;4.80;;;13.70;99.90;;;;;;4936876;29;39529;-81
2023/07/07 02:10:24;;;;;;;8.50;5.63;;;13.70;99.90;;;;;;4936148;29;37205;-81
2023/07/07 02:12:50;;;;;;;8.32;5.43;;;13.80;99.90;;;;;;4934798;29;39149;-81
2023/07/07 02:15:21;;;;;;;6.60;4.78;;;13.80;99.90;;;;;;4933979;29;38722;-81
2023/07/07 02:17:48;;;;;;;6.18;5.18;;;13.70;99.90;;;;;;4934003;29;38196;-81
2023/07/07 02:20:22;;;;;;;14.38;7.57;;;13.70;99.90;;;;;;4933941;29;36712;-81
2023/07/07 02:22:48;;;;;;;10.23;6.43;;;13.70;99.90;;;;;;4935278;29;37593;-80
2023/07/07 02:25:20;;;;;;;11.70;6.78;;;13.80;99.90;;;;;;4933872;29;37629;-81
2023/07/07 02:27:47;;;;;;;13.15;6.30;;;13.80;99.90;;;;;;4934655;29;38506;-81
2023/07/07 02:30:13;;;;;;;15.15;7.18;;;13.80;99.90;;;;;;4935153;29;35991;-81
2023/07/07 02:32:39;;;;;;;12.18;7.72;;;13.90;99.90;;;;;;4933605;29;37404;-81
2023/07/07 02:35:06;;;;;;;17.08;7.88;;;13.90;99.90;;;;;;4933502;29;38941;-81
2023/07/07 02:37:33;;;;;;;12.25;7.90;;;14.00;99.90;;;;;;4948251;29;46881;-81
2023/07/07 02:39:59;;;;;;;14.13;6.95;;;14.00;99.90;;;;;;4933186;29;38247;-81
2023/07/07 02:42:26;;;;;;;10.25;6.13;;;14.00;99.90;;;;;;4933471;29;37905;-81
2023/07/07 02:44:52;;;;;;;13.13;7.47;;;14.00;99.90;;;;;;4934680;28;39411;-81
2023/07/07 02:47:18;;;;;;;15.27;8.23;;;14.00;99.90;;;;;;4933510;29;39432;-80
2023/07/07 02:49:45;;;;;;;13.60;9.23;;;14.00;99.90;;;;;;4931355;29;36230;-80
2023/07/07 02:52:12;;;;;;;9.70;7.25;;;14.00;99.90;;;;;;4929959;29;37881;-80
2023/07/07 02:54:38;;;;;;;12.93;8.80;;;13.90;99.90;;;;;;4951279;29;38751;-80
2023/07/07 02:57:05;;;;;;;12.65;8.65;;;14.00;99.90;;;;;;4931939;29;37690;-81
2023/07/07 02:59:31;;;;;;;15.70;7.93;;;14.00;99.90;;;;;;4951938;29;36429;-80
2023/07/07 03:01:58;;;;;;;10.38;7.07;;;14.00;99.90;;;;;;4938746;29;39530;-81
2023/07/07 03:04:41;;;;;;;11.80;8.10;;;13.90;99.90;;;;;;4952564;28;37892;-81
2023/07/07 03:07:08;;;;;;;14.70;7.75;;;13.90;99.90;;;;;;4936271;29;39590;-80
2023/07/07 03:09:37;;;;;;;8.95;7.00;;;13.90;99.90;;;;;;4933148;29;36782;-81
2023/07/07 03:12:13;;;;;;;16.25;8.85;;;13.90;99.90;;;;;;4932316;28;37469;-80
2023/07/07 03:14:40;;;;;;;10.07;7.53;;;13.80;99.90;;;;;;4944430;29;36793;-80
2023/07/07 03:17:08;;;;;;;16.55;9.93;;;13.90;99.90;;;;;;4935522;29;38198;-80
2023/07/07 03:19:35;;;;;;;11.00;8.48;;;13.90;99.90;;;;;;4932849;29;37233;-81
2023/07/07 03:22:01;;;;;;;11.00;8.20;;;13.80;99.90;;;;;;4933025;29;39087;-81
2023/07/07 03:24:28;;;;;;;11.43;8.57;;;13.80;99.90;;;;;;4928581;29;37349;-80
2023/07/07 03:26:54;;;;;;;11.98;7.25;;;13.80;99.90;;;;;;4924225;29;38078;-80
2023/07/07 03:29:20;;;;;;;11.13;8.07;;;13.80;99.90;;;;;;4940827;29;37194;-80
2023/07/07 03:31:46;;;;;;;13.85;9.18;;;13.80;99.90;;;;;;4931010;29;40102;-80
2023/07/07 03:34:14;;;;;;;11.98;7.88;;;13.80;99.90;;;;;;4929040;29;38503;-80
2023/07/07 03:36:41;;;;;;;10.50;7.57;;;13.70;99.90;;;;;;4930947;29;39310;-81
2023/07/07 03:39:07;;;;;;;19.23;9.82;;;13.70;99.90;;;;;;4929651;29;36991;-81
2023/07/07 03:41:33;;;;;;;10.48;7.75;;;13.70;99.90;;;;;;4931369;28;38845;-79
2023/07/07 03:44:00;;;;;;;10.75;7.57;;;13.70;99.90;;;;;;4932993;29;39868;-80
2023/07/07 03:46:28;;;;;;;9.13;6.95;;;13.70;99.90;;;;;;4934686;29;38698;-80
2023/07/07 03:48:55;;;;;;;11.30;8.23;;;13.70;99.90;;;;;;4916721;29;35754;-80
2023/07/07 03:51:23;;;;;;;11.73;7.30;;;13.70;99.90;;;;;;4947664;29;39572;-79
2023/07/07 03:53:50;;;;;;;12.70;8.05;;;13.70;99.90;;;;;;4929392;29;38112;-80
2023/07/07 03:56:18;;;;;;;8.68;7.22;;;13.80;99.90;;;;;;4932316;28;38803;-80
2023/07/07 03:58:44;;;;;;;11.50;7.55;;;13.80;99.90;;;;;;4930160;29;37681;-79
2023/07/07 04:01:13;;;;;;;11.02;7.28;;;13.90;99.90;;;;;;4926629;29;38105;-79
2023/07/07 04:03:42;;;;;;;10.55;6.25;;;13.90;99.90;;;;;;4927627;29;20049;-81
2023/07/07 04:06:09;;;;;;;10.38;6.80;;;13.80;99.90;;;;;;4948547;29;36874;-81
2023/07/07 04:08:35;;;;;;;10.05;6.70;;;13.90;99.90;;;;;;4931163;29;37721;-82
2023/07/07 04:11:08;;;;;;;13.55;7.88;;;13.90;99.90;;;;;;4950375;29;38781;-81
2023/07/07 04:13:36;;;;;;;10.60;7.72;;;13.90;99.90;;;;;;4933892;29;39267;-81
2023/07/07 04:16:04;;;;;;;11.80;6.45;;;14.00;99.90;;;;;;4934758;29;38926;-81
2023/07/07 04:18:31;;;;;;;8.35;6.13;;;14.00;99.90;;;;;;4933989;29;36155;-81
2023/07/07 04:20:59;;;;;;;7.95;6.28;;;14.00;99.90;;;;;;4934145;29;38635;-81
2023/07/07 04:23:26;;;;;;;12.95;5.93;;;14.00;99.90;;;;;;4935957;29;38561;-82
2023/07/07 04:25:52;;;;;;;11.02;5.93;;;14.10;99.90;;;;;;4928431;29;37089;-80
2023/07/07 04:28:18;;;;;;;7.28;5.15;;;14.10;99.90;;;;;;4929464;29;37034;-80
2023/07/07 04:30:49;;;;;;;13.00;6.07;;;14.20;99.90;;;;;;4930235;29;41478;-79
2023/07/07 04:33:15;;;;;;;6.53;5.10;;;14.30;99.90;;;;;;4922144;29;37223;-82
2023/07/07 04:35:41;;;;;;;8.45;4.82;;;14.40;99.90;;;;;;4943798;29;38079;-79
2023/07/07 04:38:07;;;;;;;9.07;5.13;;;14.40;99.90;;;;;;4929052;29;36291;-79
2023/07/07 04:40:36;;;;;;;7.97;5.28;;;14.50;99.90;;;;;;4930873;29;37648;-79
2023/07/07 04:43:02;;;;;;;8.27;5.13;;;14.60;99.90;;;;;;4935212;28;39673;-80
2023/07/07 04:45:34;;;;;;;8.85;5.07;;;14.70;99.90;;;;;;4934965;29;50159;-79
2023/07/07 04:48:01;;;;;;;13.95;4.85;;;14.70;99.90;;;;;;4933624;28;37988;-80
2023/07/07 04:50:28;;;;;;;8.85;4.93;;;14.80;99.90;;;;;;4935598;29;50015;-81
2023/07/07 04:53:06;;;;;;;12.20;4.63;;;14.90;99.90;;;;;;4954911;28;40380;-81
2023/07/07 04:55:32;;;;;;;8.10;4.20;;;15.10;99.90;;;;;;4949112;28;47127;-81
2023/07/07 04:58:00;;;;;;;8.10;4.28;;;15.30;99.90;;;;;;4933825;28;37544;-81
2023/07/07 05:00:28;;;;;;;9.07;4.60;;;15.30;99.90;;;;;;4928930;28;38980;-82
2023/07/07 05:06:34;;;;;;;6.03;3.83;;;15.50;99.90;;;;;;4903196;28;50638;-81
2023/07/07 05:09:28;;;;;;;9.25;4.03;;;15.80;99.90;;;;;;4925204;28;37550;-82
2023/07/07 05:12:32;;;;;;;7.72;3.90;;;16.10;99.90;;;;;;4926574;28;50363;-82
2023/07/07 05:15:18;;;;;;;9.30;4.30;;;16.50;99.90;;;;;;4910014;28;40144;-81
2023/07/07 05:18:36;;;;;;;6.32;3.90;;;16.70;99.90;;;;;;4903757;28;50057;-82
2023/07/07 05:21:26;;;;;;;4.68;3.47;;;17.00;99.90;;;;;;4931868;28;38743;-81
2023/07/07 05:24:37;;;;;;;6.35;3.50;;;17.30;98.20;;;;;;4945041;28;39037;-82
2023/07/07 05:27:04;;;;;;;7.45;3.50;;;17.30;99.90;;;;;;4962909;23;49376;-80
2023/07/07 05:29:32;;;;;;;9.15;4.15;;;17.40;99.00;;;;;;4918233;28;39597;-81
2023/07/07 05:32:05;;;;;;;12.50;3.50;;;17.40;98.90;;;;;;4911470;29;35985;-81
2023/07/07 05:34:31;;;;;;;8.13;3.90;;;17.60;92.80;;;;;;4916979;29;49315;-81
2023/07/07 05:37:01;;;;;;;7.75;3.92;;;17.80;80.90;;;;;;4946483;28;37590;-81
2023/07/07 05:39:28;;;;;;;6.80;3.78;;;17.90;92.20;;;;;;4928814;28;36625;-80
2023/07/07 05:41:54;;;;;;;6.97;3.30;;;18.20;87.10;;;;;;4918753;29;37246;-81
2023/07/07 05:44:22;;;;;;;5.07;3.40;;;18.20;91.80;;;;;;4930078;29;37640;-80
2023/07/07 05:46:48;;;;;;;7.38;4.00;;;18.20;82.50;;;;;;4914364;29;38407;-81
2023/07/07 05:49:30;;;;;;;9.63;3.75;;;18.40;82.30;;;;;;4921664;29;37247;-81
2023/07/07 05:51:58;;;;;;;6.47;3.78;;;18.60;73.10;;;;;;4923058;28;37356;-81
2023/07/07 05:54:25;;;;;;;6.93;3.47;;;18.80;85.30;;;;;;4921895;29;39216;-82
2023/07/07 05:56:54;;;;;;;9.05;3.38;;;18.90;81.20;;;;;;4923843;29;37444;-82
2023/07/07 05:59:52;;;;;;;8.15;3.22;;;19.10;77.80;;;;;;4919097;29;38518;-81
2023/07/07 06:03:04;;;;;;;9.68;3.45;;;19.20;67.30;;;;;;4924556;28;38700;-81
2023/07/07 06:05:58;;;;;;;5.97;2.90;;;19.40;50.50;;;;;;4919129;29;49226;-80
2023/07/07 06:08:49;;;;;;;6.68;3.10;;;19.60;54.00;;;;;;4905071;28;50761;-81
2023/07/07 06:11:24;;;;;;;5.28;3.30;;;19.90;44.80;;;;;;4931836;28;39482;-81
2023/07/07 06:13:52;;;;;;;4.47;2.90;;;19.90;56.30;;;;;;4926339;28;36458;-80
2023/07/07 06:16:30;;;;;;;9.45;3.53;;;19.90;45.90;;;;;;4914755;29;41549;-79
2023/07/07 06:19:27;;;;;;;6.15;3.05;;;20.00;38.80;;;;;;4912807;29;37382;-81
2023/07/07 06:22:09;;;;;;;8.02;3.20;;;20.20;51.40;;;;;;4903098;29;47417;-79
2023/07/07 06:24:51;;;;;;;6.97;3.03;;;20.50;52.00;;;;;;4899938;29;48946;-79
2023/07/07 06:27:51;;;;;;;6.20;3.33;;;20.60;43.20;;;;;;4913294;28;37374;-80
2023/07/07 06:30:33;;;;;;;8.65;3.17;;;20.70;48.30;;;;;;4917000;28;39603;-81
2023/07/07 06:33:22;;;;;;;8.43;3.08;;;20.90;57.60;;;;;;4908763;29;39599;-82
2023/07/07 06:37:10;;;;;;;7.55;3.15;;;21.10;46.50;;;;;;4917157;28;49162;-83
2023/07/07 06:40:30;;;;;;;5.03;2.85;;;21.30;28.80;;;;;;4921390;29;38615;-83
2023/07/07 06:43:35;;;;;;;7.05;3.20;;;21.20;38.40;;;;;;4911685;29;38985;-81
2023/07/07 06:50:11;;;;;;;4.70;2.75;;;21.40;1.00;;;;;;4916118;28;39045;-81
2023/07/07 06:53:11;;;;;;;4.60;2.83;;;21.70;1.00;;;;;;4930997;29;40266;-80
2023/07/07 06:56:25;;;;;;;3.92;2.45;;;21.80;1.00;;;;;;4912973;28;48941;-81
2023/07/07 06:59:53;;;;;;;5.30;2.78;;;21.60;1.00;;;;;;4902370;28;39534;-82
2023/07/07 07:23:09;;;;;;;6.68;2.30;;;22.40;1.00;;;;;;5388953;23;20045;-80
2023/07/07 07:25:35;;;;;;;5.90;2.30;;;22.80;1.00;;;;;;4892759;29;40829;-79
2023/07/07 07:28:02;;;;;;;5.05;2.60;;;22.90;1.00;;;;;;4902835;29;38634;-79
2023/07/07 07:30:28;;;;;;;7.35;2.80;;;22.90;1.00;;;;;;4900339;29;36838;-79
2023/07/07 07:32:54;;;;;;;7.80;2.35;;;22.60;1.00;;;;;;4886822;29;37744;-79
2023/07/07 07:35:20;;;;;;;7.00;2.60;;;22.60;1.00;;;;;;4890124;29;38174;-79
2023/07/07 07:37:46;;;;;;;6.40;2.58;;;22.80;1.00;;;;;;4893026;29;40046;-79
2023/07/07 07:40:13;;;;;;;8.10;2.67;;;23.20;1.00;;;;;;4904238;29;38958;-79
2023/07/07 07:42:39;;;;;;;5.65;2.50;;;23.40;1.00;;;;;;4888307;29;36277;-79
2023/07/07 07:45:06;;;;;;;5.07;2.67;;;23.60;1.00;;;;;;4904191;29;39701;-79
2023/07/07 07:47:34;;;;;;;5.70;2.22;;;23.60;1.00;;;;;;4905580;29;37622;-79
2023/07/07 07:50:00;;;;;;;3.97;2.30;;;23.60;1.00;;;;;;4907175;29;38518;-79
2023/07/07 07:52:26;;;;;;;6.95;2.40;;;23.80;1.00;;;;;;4892448;29;36505;-79
2023/07/07 07:54:52;;;;;;;6.90;2.70;;;24.00;1.00;;;;;;4908942;29;39923;-79
2023/07/07 07:57:19;;;;;;;5.82;2.63;;;23.60;1.00;;;;;;4904083;29;38286;-78
2023/07/07 07:59:45;;;;;;;4.95;2.33;;;23.70;99.90;;;;;;4906683;29;38417;-79
2023/07/07 08:02:12;;;;;;;6.15;2.50;;;24.20;1.00;;;;;;4893499;29;36725;-79
2023/07/07 08:04:38;;;;;;;6.57;2.45;;;24.30;1.00;;;;;;4900653;29;37787;-78
2023/07/07 08:07:05;;;;;;;3.78;2.30;;;24.40;99.90;;;;;;4894826;29;38986;-80
2023/07/07 08:09:31;;;;;;;4.97;2.20;;;24.00;99.90;;;;;;4905627;29;38644;-79
2023/07/07 08:12:00;;;;;;;4.07;2.40;;;24.10;99.90;;;;;;4886199;29;37034;-79
2023/07/07 08:14:31;;;;;;;4.68;2.05;;;24.30;1.00;;;;;;4899616;29;40276;-79
2023/07/07 08:17:07;;;;;;;2.80;2.30;;;24.30;1.00;;;;;;4873836;29;38587;-78
2023/07/07 08:19:35;;;;;;;4.53;2.17;;;24.20;99.90;;;;;;4889606;29;47411;-79
2023/07/07 08:22:05;;;;;;;3.25;2.22;;;24.40;99.90;;;;;;4864119;29;37614;-79
2023/07/07 08:24:38;;;;;;;4.57;2.53;;;24.50;1.00;;;;;;4883587;29;47227;-79
2023/07/07 08:27:04;;;;;;;5.35;2.42;;;24.70;1.00;;;;;;4880137;29;37393;-80
2023/07/07 08:29:30;;;;;;;3.65;2.10;;;24.60;1.00;;;;;;4884500;29;36771;-78
2023/07/07 08:31:56;;;;;;;5.45;2.00;;;25.00;1.00;;;;;;4882275;29;38725;-80
2023/07/07 08:34:23;;;;;;;4.70;1.85;;;25.20;99.90;;;;;;4886999;29;40039;-80
2023/07/07 08:36:49;;;;;;;5.47;2.20;;;25.00;99.90;;;;;;4912401;29;38663;-78
2023/07/07 08:39:20;;;;;;;2.67;1.98;;;25.10;1.00;;;;;;4906621;29;38314;-80
2023/07/07 08:42:04;;;;;;;3.20;1.80;;;25.10;1.00;;;;;;4904119;29;36761;-79
2023/07/07 08:44:35;;;;;;;4.20;2.10;;;25.00;99.90;;;;;;4897806;29;48116;-80
2023/07/07 08:47:38;;;;;;;5.15;2.20;;;25.40;1.00;;;;;;4905431;29;38983;-79
2023/07/07 08:50:11;;;;;;;4.70;1.88;;;25.20;1.00;;;;;;4902720;29;48754;-79
2023/07/07 08:53:04;;;;;;;7.15;2.28;;;25.30;1.00;;;;;;4906452;29;47153;-80
2023/07/07 08:55:50;;;;;;;3.90;2.10;;;25.30;99.90;;;;;;4899900;29;48165;-79
2023/07/07 08:58:32;;;;;;;3.95;1.83;;;25.40;99.90;;;;;;4901287;29;38942;-80
2023/07/07 09:01:24;;;;;;;4.93;2.00;;;25.70;15.80;;;;;;4881030;29;36594;-78
2023/07/07 09:04:16;;;;;;;4.28;1.98;;;26.30;99.90;;;;;;4865398;29;47106;-78
2023/07/07 09:07:09;;;;;;;4.32;2.03;;;26.20;99.90;;;;;;4889787;29;47380;-79
2023/07/07 09:09:51;;;;;;;3.05;1.60;;;26.40;1.00;;;;;;4878487;29;47173;-78
2023/07/07 09:12:57;;;;;;;4.78;2.50;;;26.80;1.00;;;;;;4891461;28;39514;-83
2023/07/07 09:16:06;;;;;;;3.65;2.22;;;26.60;99.90;;;;;;4905803;28;38507;-82
2023/07/07 09:50:49;;;;;;;5.72;2.00;;;28.20;1.00;;;;;;5008529;23;20029;-80
2023/07/07 10:01:15;;;;;;;4.78;2.10;;;28.90;99.90;;;;;;4951005;23;19911;-80
2023/07/07 10:03:50;;;;;;;3.65;1.80;;;29.10;99.90;;;;;;4855390;29;36506;-79
2023/07/07 10:10:33;;;;;;;5.22;2.20;;;28.80;99.90;;;;;;4869755;29;50701;-80
2023/07/07 10:23:38;;;;;;;4.82;1.88;;;29.20;99.90;;;;;;5643679;23;20052;-80
2023/07/07 10:26:46;;;;;;;3.45;1.90;;;29.30;99.90;;;;;;4893950;28;38449;-81
2023/07/07 10:29:36;;;;;;;8.35;1.98;;;29.40;99.90;;;;;;4912418;28;39169;-79
2023/07/07 10:32:26;;;;;;;4.20;2.50;;;29.40;99.90;;;;;;4900716;29;38461;-81
2023/07/07 10:35:42;;;;;;;4.13;2.13;;;29.70;99.90;;;;;;4881805;29;48676;-80
2023/07/07 10:38:26;;;;;;;4.95;2.33;;;29.80;99.90;;;;;;4842091;29;49739;-80
2023/07/07 10:41:34;;;;;;;4.03;1.65;;;29.70;99.90;;;;;;4845282;29;39688;-81
2023/07/07 10:44:46;;;;;;;5.63;2.10;;;29.60;99.90;;;;;;4873830;29;50083;-80
2023/07/07 10:48:01;;;;;;;5.72;2.35;;;29.00;94.10;;;;;;4852672;29;39494;-80
2023/07/07 10:53:50;;;;;;;3.95;2.50;;;28.30;81.60;;;;;;4963899;23;20055;-81
2023/07/07 10:56:39;;;;;;;3.03;1.95;;;28.60;99.90;;;;;;4910950;29;38378;-79
2023/07/07 10:59:53;;;;;;;3.42;1.65;;;29.00;99.90;;;;;;4924263;28;38333;-81
2023/07/07 11:02:33;;;;;;;3.53;2.33;;;29.00;99.90;;;;;;4915622;29;36491;-80
2023/07/07 11:05:36;;;;;;;5.13;2.45;;;29.30;99.90;;;;;;4920595;29;35928;-80
2023/07/07 11:08:39;;;;;;;3.75;2.45;;;29.70;74.40;;;;;;4910930;29;47535;-80
2023/07/07 11:11:28;;;;;;;4.05;1.92;;;29.70;72.20;;;;;;4922961;28;37574;-79
2023/07/07 11:14:21;;;;;;;3.38;2.05;;;29.90;79.50;;;;;;4915808;28;38487;-80
2023/07/07 11:17:17;;;;;;;5.22;2.13;;;29.80;87.90;;;;;;4908978;28;48791;-79
2023/07/07 11:20:03;;;;;;;6.47;2.13;;;29.60;30.70;;;;;;4930804;29;49316;-80
2023/07/07 11:23:06;;;;;;;3.53;2.15;;;29.80;48.70;;;;;;4927674;29;39518;-81
2023/07/07 11:26:06;;;;;;;6.13;2.30;;;29.90;27.30;;;;;;4899246;29;50066;-80
2023/07/07 11:28:41;;;;;;;3.78;2.00;;;29.50;32.60;;;;;;4903262;29;47672;-80
2023/07/07 11:31:25;;;;;;;4.22;2.30;;;29.60;57.20;;;;;;4906737;29;37322;-80
2023/07/07 11:34:44;;;;;;;2.72;2.45;;;30.40;37.80;;;;;;4908400;29;37301;-80
2023/07/07 11:37:41;;;;;;;5.85;2.53;;;30.10;10.40;;;;;;4899841;29;48365;-80
2023/07/07 11:40:29;;;;;;;5.05;2.38;;;30.00;4.20;;;;;;4924745;28;39613;-80
2023/07/07 11:43:26;;;;;;;3.40;2.08;;;29.40;1.00;;;;;;4918347;29;39144;-80
2023/07/07 11:46:26;;;;;;;3.78;2.13;;;29.80;4.30;;;;;;4902009;29;48258;-80
2023/07/07 11:49:34;;;;;;;5.15;2.47;;;30.50;7.10;;;;;;4912783;29;49920;-81
2023/07/07 11:52:25;;;;;;;4.97;2.90;;;30.00;1.00;;;;;;4902173;29;47354;-80
2023/07/07 11:55:28;;;;;;;4.53;2.28;;;29.80;1.00;;;;;;4907423;28;49062;-78
2023/07/07 11:58:16;;;;;;;3.67;2.60;;;30.50;1.00;;;;;;4918682;29;48464;-79
2023/07/07 12:01:04;;;;;;;3.35;2.55;;;31.30;1.00;;;;;;4905383;29;47588;-80
2023/07/07 12:04:04;;;;;;;3.33;2.33;;;31.50;1.00;;;;;;4916878;29;46889;-81
2023/07/07 12:06:59;;;;;;;3.03;2.13;;;31.30;1.00;;;;;;4917287;29;50201;-80
2023/07/07 12:09:46;;;;;;;4.40;2.58;;;31.30;1.00;;;;;;4907001;29;48759;-80
2023/07/07 12:12:55;;;;;;;3.55;2.15;;;30.00;1.00;;;;;;4908699;29;37158;-80
2023/07/07 12:15:28;;;;;;;8.35;2.63;;;29.30;1.00;;;;;;4919247;29;38573;-80
2023/07/07 12:18:12;;;;;;;3.90;2.75;;;29.40;1.00;;;;;;4929083;29;38877;-80
2023/07/07 12:21:06;;;;;;;3.17;2.33;;;29.60;1.00;;;;;;4926458;29;47721;-81
2023/07/07 12:24:02;;;;;;;4.18;2.22;;;30.30;1.00;;;;;;4931124;29;49293;-80
2023/07/07 12:26:41;;;;;;;2.65;2.15;;;31.00;1.00;;;;;;4910708;29;48947;-79
2023/07/07 12:29:13;;;;;;;4.45;2.50;;;31.20;1.00;;;;;;4908069;29;37738;-79
2023/07/07 12:31:40;;;;;;;4.93;2.60;;;30.10;1.00;;;;;;4902916;29;38727;-78
2023/07/07 12:34:40;;;;;;;4.13;2.38;;;30.50;1.00;;;;;;4880793;29;37791;-79
2023/07/07 12:37:21;;;;;;;5.55;2.35;;;30.20;1.00;;;;;;4897231;29;40111;-79
2023/07/07 12:39:55;;;;;;;6.57;2.75;;;30.30;1.00;;;;;;4883283;29;37006;-79
2023/07/07 12:42:28;;;;;;;3.25;2.35;;;29.80;1.00;;;;;;4889423;29;38078;-78
2023/07/07 12:44:58;;;;;;;5.22;2.45;;;29.90;1.00;;;;;;4901591;29;37297;-79
2023/07/07 12:47:32;;;;;;;3.60;2.53;;;30.40;1.00;;;;;;4896176;29;37706;-79
2023/07/07 12:50:00;;;;;;;3.17;2.30;;;31.00;1.00;;;;;;4896634;29;38967;-79
2023/07/07 12:52:35;;;;;;;2.70;2.15;;;31.30;1.00;;;;;;4878760;29;38807;-79
2023/07/07 12:55:30;;;;;;;3.47;2.40;;;31.00;1.00;;;;;;4884955;29;37567;-80
2023/07/07 12:58:22;;;;;;;3.45;2.05;;;30.50;1.00;;;;;;4898571;29;49095;-79
2023/07/07 13:01:07;;;;;;;5.38;2.42;;;30.60;1.00;;;;;;4897829;28;47016;-78
2023/07/07 13:03:45;;;;;;;2.80;2.20;;;30.80;1.00;;;;;;4913732;29;47358;-79
2023/07/07 13:06:31;;;;;;;3.13;2.42;;;30.70;1.00;;;;;;4906728;29;36203;-79
2023/07/07 13:09:12;;;;;;;3.92;2.22;;;30.90;1.00;;;;;;4913141;29;38942;-80
2023/07/07 13:11:57;;;;;;;4.07;2.58;;;30.80;1.00;;;;;;4924061;28;47817;-80
2023/07/07 13:14:32;;;;;;;4.68;2.58;;;30.70;1.00;;;;;;4927714;28;38883;-80
2023/07/07 13:17:02;;;;;;;3.53;2.55;;;30.10;1.00;;;;;;4918685;29;36274;-80
2023/07/07 13:19:31;;;;;;;3.45;2.50;;;29.90;1.00;;;;;;4893647;29;48246;-80
2023/07/07 13:22:01;;;;;;;4.82;2.50;;;30.20;1.00;;;;;;4910725;29;36667;-79
2023/07/07 13:24:36;;;;;;;5.28;2.38;;;30.70;1.00;;;;;;4916041;29;47361;-79
2023/07/07 13:27:02;;;;;;;6.63;2.72;;;31.10;1.00;;;;;;4914191;28;37171;-80
2023/07/07 13:29:29;;;;;;;8.25;2.47;;;30.80;1.00;;;;;;4910701;29;39745;-79
2023/07/07 13:31:55;;;;;;;4.20;2.70;;;30.40;1.00;;;;;;4906756;29;38713;-79
2023/07/07 13:34:24;;;;;;;5.10;2.72;;;30.80;1.00;;;;;;4897006;28;38483;-79
2023/07/07 13:36:51;;;;;;;4.75;3.47;;;31.30;1.00;;;;;;4905999;29;37740;-79
2023/07/07 13:39:18;;;;;;;6.35;2.63;;;31.00;1.00;;;;;;4908192;29;37838;-79
2023/07/07 13:41:45;;;;;;;3.13;2.72;;;31.00;1.00;;;;;;4906219;29;38633;-78
2023/07/07 13:44:21;;;;;;;4.15;3.05;;;31.10;1.00;;;;;;4927225;28;38856;-79
2023/07/07 13:46:49;;;;;;;5.75;3.40;;;30.90;1.00;;;;;;4912106;29;37296;-78
2023/07/07 13:49:18;;;;;;;5.00;3.00;;;31.10;1.00;;;;;;4915012;28;39717;-78
2023/07/07 13:51:52;;;;;;;4.35;2.78;;;30.80;1.00;;;;;;4905502;29;38558;-79
2023/07/07 13:54:21;;;;;;;5.88;3.30;;;30.80;1.00;;;;;;4915081;29;38320;-79
2023/07/07 13:56:53;;;;;;;8.38;3.50;;;30.60;1.00;;;;;;4907753;29;38465;-78
2023/07/07 13:59:25;;;;;;;8.27;4.10;;;30.40;1.00;;;;;;4929575;28;39689;-79
2023/07/07 14:01:53;;;;;;;4.32;3.28;;;30.00;1.00;;;;;;4920331;29;37079;-79
2023/07/07 14:04:29;;;;;;;4.35;3.20;;;29.80;1.00;;;;;;4923638;29;37874;-79
2023/07/07 14:06:56;;;;;;;3.92;2.80;;;30.10;1.00;;;;;;4915759;29;38480;-78
2023/07/07 14:09:44;;;;;;;5.13;2.70;;;30.40;1.00;;;;;;4921170;29;38463;-79
2023/07/07 14:12:16;;;;;;;3.75;2.75;;;30.90;1.00;;;;;;4921663;28;38617;-79
2023/07/07 14:14:48;;;;;;;4.25;3.20;;;31.10;1.00;;;;;;4896554;29;37804;-79
2023/07/07 14:17:28;;;;;;;6.63;3.10;;;31.20;1.00;;;;;;4907529;29;36821;-78
2023/07/07 14:20:10;;;;;;;5.32;3.03;;;31.30;1.00;;;;;;4902991;29;39688;-78
2023/07/07 14:22:38;;;;;;;3.67;3.10;;;31.40;1.00;;;;;;4919601;28;47112;-78
2023/07/07 14:25:06;;;;;;;5.47;3.08;;;31.60;1.00;;;;;;4919977;28;36875;-78
2023/07/07 14:27:32;;;;;;;6.05;3.33;;;31.40;1.00;;;;;;4904119;29;47048;-78
2023/07/07 14:29:59;;;;;;;8.27;3.10;;;31.10;1.00;;;;;;4906371;28;40359;-78
2023/07/07 14:32:43;;;;;;;4.85;3.30;;;30.50;1.00;;;;;;4914505;29;38298;-78
2023/07/07 14:35:20;;;;;;;4.38;3.30;;;30.30;1.00;;;;;;4917002;29;39293;-80
2023/07/07 14:37:57;;;;;;;4.82;2.95;;;30.10;1.00;;;;;;4910954;29;36971;-78
2023/07/07 14:40:25;;;;;;;7.25;3.05;;;30.30;1.00;;;;;;4908850;29;40241;-78
2023/07/07 14:42:53;;;;;;;5.43;3.40;;;30.50;1.00;;;;;;4917105;29;39166;-78
2023/07/07 14:45:41;;;;;;;6.10;3.38;;;30.60;1.00;;;;;;4914507;29;37955;-79
2023/07/07 14:48:22;;;;;;;6.20;3.33;;;30.50;1.00;;;;;;4923654;29;36513;-78
2023/07/07 14:50:50;;;;;;;7.95;3.53;;;30.70;1.00;;;;;;4930773;28;39171;-79
2023/07/07 14:53:20;;;;;;;6.22;2.92;;;30.50;1.00;;;;;;4922137;28;37147;-78
2023/07/07 14:55:54;;;;;;;6.47;3.50;;;30.50;1.00;;;;;;4919743;29;37548;-79
2023/07/07 14:58:28;;;;;;;5.10;3.80;;;30.60;1.00;;;;;;4912711;29;37507;-79
2023/07/07 15:01:05;;;;;;;7.05;3.25;;;30.80;1.00;;;;;;4914710;29;39519;-78
2023/07/07 15:03:37;;;;;;;7.45;3.85;;;30.90;1.00;;;;;;4910840;29;48230;-78
2023/07/07 15:06:07;;;;;;;7.18;3.92;;;30.60;1.00;;;;;;4913802;28;38802;-79